Time;durP1;ratioP1;P1;durP2;ratioP2;P2;SDS_P1;SDS_P2;PMS_P1;PMS_P2;Temp;Humidity;BMP_temperature;BMP_pressure;BME280_temperature;BME280_humidity;BME280_pressure;Samples;Min_cycle;Max_cycle;Signal;HPM_P1;HPM_P2
2023/11/09 00:00:18;;;;;;;6.47;4.80;;;10.70;57.10;;;;;;5036234;28;20199;-51
2023/11/09 00:02:45;;;;;;;6.10;5.17;;;10.60;57.10;;;;;;5034885;28;20189;-47
2023/11/09 00:05:12;;;;;;;9.00;5.87;;;10.50;57.30;;;;;;5033718;28;20738;-51
2023/11/09 00:07:38;;;;;;;7.70;5.60;;;10.50;57.40;;;;;;5035444;28;20447;-51
2023/11/09 00:10:05;;;;;;;5.40;4.90;;;10.40;57.70;;;;;;5038487;28;20498;-51
2023/11/09 00:12:32;;;;;;;10.60;5.50;;;10.30;58.00;;;;;;5038513;28;20491;-50
2023/11/09 00:15:01;;;;;;;5.67;5.03;;;10.30;58.00;;;;;;5026033;28;20446;-52
2023/11/09 00:17:26;;;;;;;5.20;4.70;;;10.30;57.80;;;;;;5022147;28;20460;-51
2023/11/09 00:19:52;;;;;;;8.40;4.97;;;10.20;57.70;;;;;;5030203;28;20551;-52
2023/11/09 00:22:19;;;;;;;8.53;4.97;;;10.30;57.90;;;;;;5033158;28;20272;-51
2023/11/09 00:24:47;;;;;;;7.00;5.13;;;10.30;57.80;;;;;;5037737;28;20184;-51
2023/11/09 00:27:19;;;;;;;5.23;4.40;;;10.20;57.80;;;;;;5040891;28;20446;-50
2023/11/09 00:29:45;;;;;;;4.80;4.30;;;10.10;57.60;;;;;;5036449;28;20848;-50
2023/11/09 00:32:11;;;;;;;5.87;3.70;;;10.00;58.00;;;;;;5036932;28;20531;-50
2023/11/09 00:34:38;;;;;;;7.77;6.00;;;10.00;58.40;;;;;;5032167;28;20232;-49
2023/11/09 00:37:04;;;;;;;6.00;5.40;;;9.90;59.30;;;;;;5037408;28;20956;-50
2023/11/09 00:39:30;;;;;;;9.23;5.40;;;9.90;59.70;;;;;;5032293;28;20494;-51
2023/11/09 00:41:56;;;;;;;7.80;5.20;;;9.90;59.80;;;;;;5038421;28;20447;-51
2023/11/09 00:44:21;;;;;;;7.03;4.07;;;9.90;59.80;;;;;;5033422;28;20434;-51
2023/11/09 00:46:47;;;;;;;5.30;3.77;;;9.90;59.50;;;;;;5035069;28;20580;-52
2023/11/09 00:49:13;;;;;;;5.80;4.03;;;9.80;59.50;;;;;;5029226;28;20207;-50
2023/11/09 00:51:38;;;;;;;4.20;3.80;;;9.90;59.60;;;;;;5031506;28;20277;-50
2023/11/09 00:54:04;;;;;;;5.40;4.03;;;9.70;60.60;;;;;;5033854;28;20247;-48
2023/11/09 00:56:30;;;;;;;9.63;4.47;;;9.70;59.90;;;;;;5032850;28;20185;-53
2023/11/09 00:58:56;;;;;;;5.17;3.50;;;9.50;60.50;;;;;;5028767;28;20205;-50
2023/11/09 01:01:21;;;;;;;5.70;4.03;;;9.60;60.50;;;;;;5032072;28;20212;-49
2023/11/09 01:03:47;;;;;;;6.17;4.67;;;9.60;60.20;;;;;;5032721;28;20279;-47
2023/11/09 01:06:13;;;;;;;4.77;3.37;;;9.40;61.90;;;;;;5030012;28;20271;-51
2023/11/09 01:08:38;;;;;;;7.50;3.63;;;9.50;61.10;;;;;;5030266;28;20220;-49
2023/11/09 01:11:05;;;;;;;5.00;3.97;;;9.70;60.70;;;;;;5038108;28;20191;-50
2023/11/09 01:13:35;;;;;;;7.20;4.00;;;9.70;60.20;;;;;;5040376;28;20189;-50
2023/11/09 01:16:02;;;;;;;6.17;4.47;;;9.80;60.50;;;;;;5039128;28;20489;-50
2023/11/09 01:18:28;;;;;;;6.00;4.20;;;9.70;59.70;;;;;;5037984;28;20469;-51
2023/11/09 01:20:54;;;;;;;6.00;4.00;;;9.70;60.30;;;;;;5036084;28;20485;-49
2023/11/09 01:23:20;;;;;;;4.73;4.27;;;9.80;60.30;;;;;;5039722;28;20617;-50
2023/11/09 01:25:45;;;;;;;4.87;3.60;;;9.80;59.90;;;;;;5038996;28;20181;-51
2023/11/09 01:28:11;;;;;;;4.23;3.83;;;9.80;60.10;;;;;;5042639;28;20211;-51
2023/11/09 01:30:37;;;;;;;4.20;3.80;;;9.80;59.80;;;;;;5028708;28;20260;-50
2023/11/09 01:33:04;;;;;;;4.43;4.07;;;9.70;59.50;;;;;;5038561;28;20350;-49
2023/11/09 01:35:30;;;;;;;6.63;3.43;;;9.60;60.40;;;;;;5034304;28;20959;-50
2023/11/09 01:37:56;;;;;;;6.80;4.23;;;9.70;60.10;;;;;;5031040;28;20444;-49
2023/11/09 01:40:26;;;;;;;4.47;3.73;;;9.80;60.00;;;;;;5034149;28;20839;-49
2023/11/09 01:42:52;;;;;;;3.93;3.50;;;9.60;60.00;;;;;;5027707;28;20790;-49
2023/11/09 01:45:18;;;;;;;6.40;3.90;;;9.70;60.00;;;;;;5028275;28;20440;-52
2023/11/09 01:47:44;;;;;;;7.40;4.07;;;9.60;59.90;;;;;;5029155;28;20446;-49
2023/11/09 01:50:09;;;;;;;3.60;3.30;;;9.60;60.20;;;;;;5034712;28;20208;-50
2023/11/09 01:52:35;;;;;;;3.70;3.30;;;9.70;59.90;;;;;;5035229;28;21026;-49
2023/11/09 01:55:02;;;;;;;3.90;3.50;;;9.80;59.50;;;;;;5032046;28;20192;-51
2023/11/09 01:57:28;;;;;;;3.80;3.03;;;9.80;59.50;;;;;;5035987;28;20190;-51
2023/11/09 01:59:56;;;;;;;6.50;3.50;;;9.80;59.10;;;;;;5026696;28;20457;-52
2023/11/09 02:02:22;;;;;;;3.83;3.43;;;9.70;59.50;;;;;;5024347;28;20951;-50
2023/11/09 02:04:48;;;;;;;3.40;2.80;;;9.50;59.90;;;;;;5029257;28;20494;-51
2023/11/09 02:07:16;;;;;;;6.13;2.87;;;9.50;60.00;;;;;;5038874;28;20466;-49
2023/11/09 02:09:42;;;;;;;8.43;5.50;;;9.50;59.70;;;;;;5027089;28;20463;-48
2023/11/09 02:12:08;;;;;;;5.90;4.07;;;9.50;59.80;;;;;;5026643;28;20480;-49
2023/11/09 02:14:34;;;;;;;6.27;4.23;;;9.60;59.80;;;;;;5034790;28;20459;-48
2023/11/09 02:17:03;;;;;;;8.03;3.60;;;9.50;59.90;;;;;;5028920;28;20487;-50
2023/11/09 02:19:29;;;;;;;5.93;4.70;;;9.40;60.00;;;;;;5027006;28;20460;-52
2023/11/09 02:21:56;;;;;;;4.50;3.40;;;9.30;60.40;;;;;;5026980;28;20452;-49
2023/11/09 02:24:22;;;;;;;4.87;3.77;;;9.50;60.30;;;;;;5033831;28;20493;-49
2023/11/09 02:26:48;;;;;;;3.97;3.47;;;9.30;60.40;;;;;;5037592;28;20847;-52
2023/11/09 02:29:14;;;;;;;4.27;3.90;;;9.40;60.40;;;;;;5038081;28;20463;-50
2023/11/09 02:31:43;;;;;;;5.10;4.03;;;9.20;61.10;;;;;;5030775;28;20944;-46
2023/11/09 02:34:09;;;;;;;6.03;3.90;;;9.20;61.10;;;;;;5026420;28;20452;-50
2023/11/09 02:36:36;;;;;;;3.97;3.53;;;9.40;60.80;;;;;;5031842;28;20446;-51
2023/11/09 02:39:02;;;;;;;6.47;3.37;;;9.50;60.10;;;;;;5031077;28;20475;-49
2023/11/09 02:41:28;;;;;;;5.90;3.97;;;9.60;59.80;;;;;;5033696;28;20427;-50
2023/11/09 02:43:53;;;;;;;4.90;2.93;;;9.70;59.60;;;;;;5038106;28;20455;-49
2023/11/09 02:46:19;;;;;;;3.20;2.90;;;9.80;59.30;;;;;;5033158;28;20652;-50
2023/11/09 02:48:46;;;;;;;5.70;3.60;;;9.70;59.30;;;;;;5040516;28;20603;-50
2023/11/09 02:51:12;;;;;;;3.70;2.70;;;9.70;59.40;;;;;;5033940;28;20459;-51
2023/11/09 02:53:39;;;;;;;5.17;4.00;;;9.70;59.40;;;;;;5038715;28;20959;-51
2023/11/09 02:56:08;;;;;;;4.03;3.33;;;9.60;59.30;;;;;;5035698;28;20447;-51
2023/11/09 02:58:37;;;;;;;7.87;4.13;;;9.70;59.40;;;;;;5034867;28;20962;-50
2023/11/09 03:01:03;;;;;;;3.50;3.20;;;9.90;59.10;;;;;;5022852;28;20477;-48
2023/11/09 03:03:28;;;;;;;4.10;3.70;;;9.90;58.70;;;;;;5024273;28;20432;-51
2023/11/09 03:05:55;;;;;;;4.63;3.73;;;10.00;57.70;;;;;;5023827;28;20448;-53
2023/11/09 03:08:22;;;;;;;3.60;3.30;;;9.80;58.30;;;;;;5036035;28;20235;-49
2023/11/09 03:10:48;;;;;;;3.43;3.13;;;9.80;58.60;;;;;;5026995;28;20440;-51
2023/11/09 03:13:14;;;;;;;3.30;2.83;;;9.90;58.40;;;;;;5027904;28;20481;-52
2023/11/09 03:15:41;;;;;;;3.80;3.50;;;9.70;59.20;;;;;;5030029;28;20448;-47
2023/11/09 03:18:11;;;;;;;4.07;3.10;;;9.40;59.20;;;;;;5036598;28;20448;-47
2023/11/09 03:20:36;;;;;;;3.30;2.73;;;9.50;59.50;;;;;;5024885;28;20807;-47
2023/11/09 03:23:02;;;;;;;4.67;2.80;;;9.60;59.00;;;;;;5031511;28;20437;-50
2023/11/09 03:25:28;;;;;;;3.00;2.23;;;9.60;58.50;;;;;;5024844;28;20215;-52
2023/11/09 03:27:54;;;;;;;2.87;2.43;;;9.80;58.30;;;;;;5023879;28;21048;-51
2023/11/09 03:30:20;;;;;;;3.13;2.53;;;10.00;57.00;;;;;;5023018;28;20456;-48
2023/11/09 03:32:46;;;;;;;3.70;2.80;;;10.10;56.80;;;;;;5024512;28;20244;-52
2023/11/09 03:35:13;;;;;;;3.43;2.80;;;10.20;56.50;;;;;;5033579;28;20437;-48
2023/11/09 03:37:39;;;;;;;3.07;2.77;;;10.30;56.10;;;;;;5023685;28;20877;-50
2023/11/09 03:40:07;;;;;;;5.00;2.93;;;10.10;56.80;;;;;;5025923;28;20482;-53
2023/11/09 03:42:33;;;;;;;6.63;3.00;;;10.20;56.70;;;;;;5031717;23;20511;-49
2023/11/09 03:44:59;;;;;;;4.20;3.10;;;10.30;56.80;;;;;;5003179;28;20964;-45
2023/11/09 03:47:25;;;;;;;3.70;2.93;;;10.30;56.30;;;;;;5004626;28;20262;-46
2023/11/09 03:49:51;;;;;;;3.40;2.80;;;10.30;56.10;;;;;;5007701;28;20253;-45
2023/11/09 03:52:16;;;;;;;6.07;3.13;;;10.30;56.30;;;;;;5004974;28;20209;-46
2023/11/09 03:54:42;;;;;;;3.93;3.07;;;10.00;56.70;;;;;;5003772;28;20220;-46
2023/11/09 03:57:07;;;;;;;5.30;3.23;;;10.00;57.10;;;;;;4999990;28;20717;-44
2023/11/09 03:59:34;;;;;;;6.07;2.80;;;10.10;57.00;;;;;;5006546;28;20216;-46
2023/11/09 04:01:59;;;;;;;4.10;3.30;;;10.10;56.90;;;;;;5007551;28;20194;-45
2023/11/09 04:04:25;;;;;;;4.17;3.17;;;10.20;56.80;;;;;;5008158;28;20455;-45
2023/11/09 04:06:51;;;;;;;3.30;3.00;;;10.20;56.80;;;;;;5006197;28;20202;-46
2023/11/09 04:09:19;;;;;;;3.43;3.00;;;9.60;58.10;;;;;;5007996;28;20208;-43
2023/11/09 04:11:45;;;;;;;3.77;3.40;;;9.30;59.20;;;;;;5006880;28;20476;-46
2023/11/09 04:14:11;;;;;;;3.30;3.00;;;9.40;59.50;;;;;;5005720;28;20452;-45
2023/11/09 04:16:36;;;;;;;5.07;3.30;;;9.60;59.00;;;;;;5006936;28;20448;-46
2023/11/09 04:19:02;;;;;;;4.10;3.23;;;9.60;58.20;;;;;;5007866;28;20261;-44
2023/11/09 04:21:28;;;;;;;4.10;3.20;;;9.40;59.40;;;;;;5005959;28;20668;-44
2023/11/09 04:23:53;;;;;;;3.67;3.37;;;9.40;58.90;;;;;;5002170;28;20285;-47
2023/11/09 04:26:19;;;;;;;4.20;3.10;;;9.50;59.10;;;;;;5004976;28;20255;-45
2023/11/09 04:28:45;;;;;;;3.80;3.00;;;9.50;59.00;;;;;;5006719;28;20353;-46
2023/11/09 04:31:11;;;;;;;4.83;3.30;;;9.50;58.70;;;;;;5008551;28;20186;-46
2023/11/09 04:33:37;;;;;;;4.33;3.17;;;9.50;58.60;;;;;;5008626;28;20942;-45
2023/11/09 04:36:05;;;;;;;3.20;2.90;;;9.60;58.70;;;;;;5007875;28;20213;-46
2023/11/09 04:38:37;;;;;;;4.87;3.33;;;9.30;58.90;;;;;;5007975;28;21085;-46
2023/11/09 04:41:16;;;;;;;4.23;2.73;;;9.30;59.30;;;;;;5006381;28;20553;-46
2023/11/09 04:43:42;;;;;;;3.20;3.00;;;9.20;59.20;;;;;;5008719;28;20436;-46
2023/11/09 04:46:15;;;;;;;2.77;2.47;;;9.00;59.60;;;;;;5005584;28;20444;-43
2023/11/09 04:48:47;;;;;;;3.40;2.90;;;9.00;60.20;;;;;;5007332;28;20518;-45
2023/11/09 04:51:26;;;;;;;3.47;2.87;;;9.10;59.90;;;;;;5005966;28;20437;-46
2023/11/09 04:53:52;;;;;;;4.10;2.30;;;9.20;59.70;;;;;;5004450;28;20472;-45
2023/11/09 05:06:48;;;;;;;5.57;3.00;;;9.30;59.30;;;;;;5006588;28;20487;-47
2023/11/09 05:07:19;;;;;;;3.90;2.37;;;9.30;59.30;;;;;;5006692;28;20459;-45
2023/11/09 05:09:47;;;;;;;3.93;2.20;;;9.30;59.30;;;;;;5005926;28;20468;-46
2023/11/09 05:12:16;;;;;;;3.03;2.50;;;9.40;59.60;;;;;;5006596;28;20475;-46
2023/11/09 05:14:42;;;;;;;3.10;2.33;;;9.30;59.10;;;;;;5004250;28;20462;-46
2023/11/09 05:17:13;;;;;;;4.87;3.40;;;9.00;59.70;;;;;;5007613;28;20527;-44
2023/11/09 05:19:40;;;;;;;4.83;3.23;;;8.80;60.70;;;;;;5015518;28;20653;-44
2023/11/09 05:22:08;;;;;;;3.90;3.00;;;8.70;61.20;;;;;;5007915;28;20838;-44
2023/11/09 05:24:35;;;;;;;4.30;2.70;;;8.80;61.30;;;;;;5009038;28;20975;-47
2023/11/09 05:27:02;;;;;;;4.30;3.03;;;8.50;61.90;;;;;;5006805;28;20441;-46
2023/11/09 05:29:29;;;;;;;3.70;3.00;;;8.80;61.80;;;;;;5007723;28;20475;-45
2023/11/09 05:31:54;;;;;;;4.50;3.17;;;8.90;60.80;;;;;;5006102;28;21061;-46
2023/11/09 05:34:20;;;;;;;3.20;2.60;;;9.10;60.60;;;;;;5006389;28;20440;-46
2023/11/09 05:36:46;;;;;;;4.97;3.27;;;9.30;60.00;;;;;;5012715;28;20276;-44
2023/11/09 05:39:13;;;;;;;3.63;3.30;;;9.20;59.70;;;;;;5012544;28;20693;-47
2023/11/09 05:41:39;;;;;;;4.97;3.30;;;9.10;59.70;;;;;;5011992;28;20196;-46
2023/11/09 05:44:06;;;;;;;4.30;3.20;;;9.10;59.70;;;;;;5014158;28;20494;-48
2023/11/09 05:46:32;;;;;;;6.10;4.27;;;9.00;59.70;;;;;;5011304;28;20424;-49
2023/11/09 05:48:58;;;;;;;3.77;2.77;;;8.90;60.30;;;;;;5007716;28;21123;-46
2023/11/09 05:51:23;;;;;;;4.00;2.83;;;9.00;60.00;;;;;;5009962;28;20268;-47
2023/11/09 05:53:50;;;;;;;6.67;3.40;;;9.00;60.40;;;;;;5012382;28;20248;-46
2023/11/09 05:56:17;;;;;;;5.97;3.00;;;9.10;60.70;;;;;;5008956;28;20186;-46
2023/11/09 05:58:43;;;;;;;3.77;3.47;;;9.20;59.60;;;;;;5010718;28;20460;-45
2023/11/09 06:01:10;;;;;;;4.30;3.20;;;9.30;59.60;;;;;;5011845;28;20451;-44
2023/11/09 06:03:37;;;;;;;4.93;3.20;;;9.30;59.40;;;;;;5012724;28;20811;-44
2023/11/09 06:06:04;;;;;;;4.37;3.23;;;9.10;59.90;;;;;;5009840;28;20460;-44
2023/11/09 06:08:30;;;;;;;4.53;3.13;;;9.10;59.90;;;;;;5012161;28;20483;-46
2023/11/09 06:10:55;;;;;;;6.77;4.33;;;9.20;59.60;;;;;;5009812;28;20557;-47
2023/11/09 06:13:22;;;;;;;6.27;3.30;;;9.20;59.40;;;;;;5013585;28;20242;-47
2023/11/09 06:15:47;;;;;;;4.50;3.80;;;9.30;59.40;;;;;;5011516;28;20246;-48
2023/11/09 06:18:14;;;;;;;5.70;3.73;;;9.40;59.20;;;;;;5013650;28;20444;-48
2023/11/09 06:20:41;;;;;;;5.50;3.03;;;9.40;59.90;;;;;;5008764;28;20283;-47
2023/11/09 06:23:07;;;;;;;7.23;3.73;;;9.70;61.30;;;;;;5013390;28;20919;-43
2023/11/09 06:25:33;;;;;;;4.63;3.70;;;10.00;61.00;;;;;;5010049;28;20483;-45
2023/11/09 06:27:58;;;;;;;4.93;4.40;;;10.20;60.70;;;;;;5008190;28;20269;-44
2023/11/09 06:30:27;;;;;;;3.80;3.23;;;10.30;58.80;;;;;;5009245;28;20249;-47
2023/11/09 06:32:53;;;;;;;5.30;3.70;;;10.30;59.40;;;;;;5008118;28;20225;-44
2023/11/09 06:35:19;;;;;;;3.60;3.10;;;10.40;57.90;;;;;;5009356;28;20506;-49
2023/11/09 06:37:45;;;;;;;5.00;3.00;;;10.30;57.30;;;;;;5007636;28;20421;-50
2023/11/09 06:40:16;;;;;;;3.80;3.10;;;10.10;57.20;;;;;;5003690;28;20288;-47
2023/11/09 06:42:47;;;;;;;3.93;2.80;;;10.00;57.40;;;;;;5000874;28;20534;-48
2023/11/09 06:45:12;;;;;;;4.20;3.07;;;10.00;57.70;;;;;;5004787;28;20441;-51
2023/11/09 06:47:41;;;;;;;4.00;3.17;;;10.00;57.70;;;;;;5010213;28;20433;-46
2023/11/09 06:50:11;;;;;;;6.60;3.60;;;10.10;57.50;;;;;;5008839;28;20193;-44
2023/11/09 06:52:43;;;;;;;5.03;3.80;;;9.80;58.20;;;;;;5010278;28;20480;-47
2023/11/09 06:55:10;;;;;;;6.40;4.03;;;9.80;58.90;;;;;;5007999;28;20506;-46
2023/11/09 06:57:36;;;;;;;4.67;3.37;;;9.80;58.70;;;;;;5008644;28;20440;-44
2023/11/09 07:00:05;;;;;;;5.17;3.17;;;9.50;59.40;;;;;;5007725;28;20445;-52
2023/11/09 07:02:32;;;;;;;4.87;3.13;;;9.60;59.50;;;;;;5009861;28;20456;-49
2023/11/09 07:04:57;;;;;;;2.43;2.23;;;9.70;59.40;;;;;;5009244;28;20556;-46
2023/11/09 07:07:23;;;;;;;4.03;2.87;;;9.60;59.20;;;;;;5010419;28;20994;-45
2023/11/09 07:09:48;;;;;;;5.30;3.17;;;9.50;59.20;;;;;;5008994;28;20769;-46
2023/11/09 07:12:14;;;;;;;6.83;3.60;;;9.50;59.90;;;;;;5007918;28;20596;-44
2023/11/09 07:14:40;;;;;;;4.23;3.13;;;9.60;59.70;;;;;;5010261;28;20182;-48
2023/11/09 07:17:06;;;;;;;5.00;3.23;;;9.60;59.90;;;;;;5010447;28;20269;-44
2023/11/09 07:19:33;;;;;;;3.90;2.83;;;9.70;59.80;;;;;;5005894;28;20976;-47
2023/11/09 07:22:00;;;;;;;3.60;3.30;;;9.80;59.50;;;;;;5009759;28;20197;-44
2023/11/09 07:24:28;;;;;;;3.87;3.33;;;9.80;59.40;;;;;;5009689;28;20429;-47
2023/11/09 07:26:54;;;;;;;4.60;3.40;;;9.80;59.40;;;;;;5008445;28;20536;-48
2023/11/09 07:29:19;;;;;;;4.40;3.60;;;10.00;58.40;;;;;;5002194;28;20544;-50
2023/11/09 07:31:45;;;;;;;3.47;2.70;;;10.10;58.10;;;;;;4999771;28;20309;-50
2023/11/09 07:34:11;;;;;;;5.87;3.80;;;10.20;58.10;;;;;;5005482;28;20209;-48
2023/11/09 07:36:36;;;;;;;4.13;2.90;;;10.10;58.40;;;;;;5004291;28;20244;-46
2023/11/09 07:39:05;;;;;;;3.40;2.80;;;10.10;58.30;;;;;;5003711;28;20198;-47
2023/11/09 07:41:32;;;;;;;3.17;2.80;;;10.10;58.60;;;;;;5004585;28;20269;-47
2023/11/09 07:43:58;;;;;;;5.40;2.80;;;10.00;58.90;;;;;;4997536;28;20464;-48
2023/11/09 07:46:24;;;;;;;3.57;2.50;;;10.00;59.20;;;;;;5006976;28;20445;-46
2023/11/09 07:48:49;;;;;;;4.07;3.00;;;9.80;60.20;;;;;;5003175;28;20464;-44
2023/11/09 07:51:15;;;;;;;3.03;2.63;;;9.80;61.10;;;;;;4996681;28;20279;-46
2023/11/09 07:53:41;;;;;;;2.60;2.30;;;10.00;59.40;;;;;;5007096;28;20190;-47
2023/11/09 07:56:06;;;;;;;2.73;2.47;;;10.20;59.00;;;;;;5004122;28;20201;-46
2023/11/09 07:58:32;;;;;;;2.77;2.40;;;10.30;58.60;;;;;;5003719;28;20341;-45
2023/11/09 08:00:59;;;;;;;2.90;2.60;;;10.40;58.50;;;;;;5000340;28;20550;-45
2023/11/09 08:03:25;;;;;;;3.37;2.90;;;10.40;58.80;;;;;;5004779;28;20193;-48
2023/11/09 08:05:50;;;;;;;4.40;2.90;;;10.30;58.60;;;;;;5007560;28;20441;-47
2023/11/09 08:08:16;;;;;;;4.93;3.33;;;10.20;57.80;;;;;;5004637;28;20215;-48
2023/11/09 08:10:42;;;;;;;5.23;3.60;;;10.00;59.40;;;;;;5002484;28;20729;-46
2023/11/09 08:13:08;;;;;;;3.47;3.10;;;10.00;60.00;;;;;;5006205;28;20481;-47
2023/11/09 08:15:37;;;;;;;3.27;2.97;;;10.20;59.60;;;;;;5006230;28;20555;-49
2023/11/09 08:18:03;;;;;;;5.13;3.90;;;10.10;60.00;;;;;;5008580;28;20182;-44
2023/11/09 08:20:29;;;;;;;3.73;3.30;;;10.20;60.40;;;;;;5008242;28;20571;-47
2023/11/09 08:22:56;;;;;;;4.83;3.27;;;10.30;59.50;;;;;;5006014;28;20443;-49
2023/11/09 08:25:23;;;;;;;3.70;3.10;;;10.30;59.30;;;;;;5005994;28;20437;-48
2023/11/09 08:27:51;;;;;;;3.90;3.50;;;10.30;59.10;;;;;;5000288;28;20452;-49
2023/11/09 08:30:19;;;;;;;3.70;3.13;;;10.20;59.70;;;;;;5011741;28;20468;-49
2023/11/09 08:32:47;;;;;;;4.57;3.37;;;10.20;59.60;;;;;;5008614;28;20489;-48
2023/11/09 08:35:13;;;;;;;4.40;3.20;;;10.40;59.60;;;;;;5008376;28;20480;-48
2023/11/09 08:37:39;;;;;;;7.37;3.97;;;10.50;59.40;;;;;;5006143;28;20441;-47
2023/11/09 08:40:09;;;;;;;6.27;3.97;;;10.70;59.40;;;;;;5007360;28;20510;-47
2023/11/09 08:42:36;;;;;;;4.93;3.57;;;10.70;59.20;;;;;;5004299;28;21234;-47
2023/11/09 08:45:04;;;;;;;6.57;3.57;;;10.70;59.20;;;;;;5005310;28;20532;-47
2023/11/09 08:47:29;;;;;;;4.53;3.33;;;10.90;58.80;;;;;;5008610;28;20511;-46
2023/11/09 08:49:55;;;;;;;5.07;3.70;;;11.00;58.20;;;;;;5002690;28;20568;-44
2023/11/09 08:52:23;;;;;;;5.83;3.90;;;11.00;58.60;;;;;;5001764;28;20248;-45
2023/11/09 08:54:51;;;;;;;4.87;3.20;;;11.00;58.20;;;;;;5006585;28;20804;-48
2023/11/09 08:57:18;;;;;;;3.20;3.00;;;11.00;57.70;;;;;;5005358;28;20457;-47
2023/11/09 08:59:44;;;;;;;3.40;3.10;;;11.00;57.50;;;;;;5003206;28;20546;-45
2023/11/09 09:02:09;;;;;;;3.90;3.57;;;10.90;58.30;;;;;;5002011;28;20524;-47
2023/11/09 09:04:35;;;;;;;5.57;3.53;;;11.00;58.60;;;;;;5001857;28;20189;-49
2023/11/09 09:07:01;;;;;;;3.63;3.30;;;11.10;58.70;;;;;;5007662;28;20277;-48
2023/11/09 09:09:26;;;;;;;3.40;3.10;;;11.20;57.90;;;;;;5008648;28;20248;-46
2023/11/09 09:11:52;;;;;;;3.40;2.70;;;11.50;57.20;;;;;;5007779;28;20209;-47
2023/11/09 09:14:18;;;;;;;1.93;1.83;;;11.70;57.10;;;;;;5008809;28;20178;-49
2023/11/09 09:16:44;;;;;;;2.37;2.00;;;11.80;56.70;;;;;;5007640;28;20173;-46
2023/11/09 09:19:10;;;;;;;5.93;2.40;;;11.90;56.40;;;;;;5008551;28;20500;-45
2023/11/09 09:21:36;;;;;;;2.17;1.97;;;12.10;56.20;;;;;;5004570;28;20198;-47
2023/11/09 09:24:02;;;;;;;3.87;2.40;;;12.20;56.00;;;;;;5008063;28;20220;-52
2023/11/09 09:26:30;;;;;;;3.10;2.40;;;12.30;55.50;;;;;;5005954;28;20441;-50
2023/11/09 09:28:56;;;;;;;2.73;1.90;;;12.30;54.90;;;;;;5008127;28;20459;-48
2023/11/09 09:31:23;;;;;;;2.30;1.80;;;12.20;54.30;;;;;;5008307;28;20417;-47
2023/11/09 09:34:10;;;;;;;4.60;2.00;;;12.30;54.80;;;;;;5007915;28;20516;-49
2023/11/09 09:36:38;;;;;;;3.00;1.80;;;12.40;55.00;;;;;;5006022;28;20537;-49
2023/11/09 09:39:06;;;;;;;2.03;1.40;;;12.50;54.70;;;;;;5005809;28;20535;-45
2023/11/09 09:41:40;;;;;;;1.80;1.70;;;12.50;54.70;;;;;;5008396;28;20472;-47
2023/11/09 09:44:10;;;;;;;3.07;2.53;;;12.50;54.90;;;;;;5008419;28;20443;-47
2023/11/09 09:46:38;;;;;;;2.40;2.20;;;12.30;54.70;;;;;;5005317;28;20455;-49
2023/11/09 09:49:05;;;;;;;4.80;2.20;;;12.30;54.90;;;;;;5007956;28;20452;-48
2023/11/09 09:51:34;;;;;;;2.33;2.10;;;12.40;55.20;;;;;;5005660;28;20476;-50
2023/11/09 09:54:01;;;;;;;2.10;1.90;;;12.60;55.20;;;;;;5007874;28;20422;-50
2023/11/09 09:56:29;;;;;;;2.83;2.30;;;12.70;54.70;;;;;;5008066;28;20550;-48
2023/11/09 09:58:56;;;;;;;4.77;1.90;;;12.80;54.90;;;;;;5008078;28;20547;-50
2023/11/09 10:01:22;;;;;;;4.00;1.90;;;12.90;54.40;;;;;;5004050;28;21126;-50
2023/11/09 10:03:49;;;;;;;3.13;1.77;;;12.80;54.10;;;;;;5008907;28;20436;-45
2023/11/09 10:06:21;;;;;;;3.30;2.03;;;12.70;54.30;;;;;;5011729;28;20499;-48
2023/11/09 10:08:47;;;;;;;2.20;1.70;;;12.90;54.40;;;;;;5002525;28;20999;-48
2023/11/09 10:11:15;;;;;;;3.07;1.83;;;12.90;55.10;;;;;;5005018;28;20455;-50
2023/11/09 10:13:45;;;;;;;2.23;1.60;;;12.90;54.60;;;;;;5007085;28;20191;-50
2023/11/09 10:16:14;;;;;;;3.37;2.20;;;13.00;54.70;;;;;;5011301;28;20967;-48
2023/11/09 10:18:39;;;;;;;1.67;1.57;;;13.10;54.50;;;;;;5011098;28;20471;-53
2023/11/09 10:21:07;;;;;;;1.83;1.73;;;13.00;54.20;;;;;;5007510;28;20818;-48
2023/11/09 10:23:32;;;;;;;3.20;2.07;;;13.10;54.70;;;;;;5009541;28;20189;-50
2023/11/09 10:25:59;;;;;;;2.83;1.60;;;13.20;54.60;;;;;;5009983;28;20421;-52
2023/11/09 10:28:28;;;;;;;1.70;1.60;;;13.30;54.40;;;;;;5009659;28;20213;-53
2023/11/09 10:30:55;;;;;;;2.10;1.90;;;13.40;54.40;;;;;;5007650;28;20828;-49
2023/11/09 10:33:22;;;;;;;1.80;1.63;;;13.60;54.20;;;;;;5009826;28;20473;-46
2023/11/09 10:35:48;;;;;;;1.30;1.20;;;13.70;54.00;;;;;;5006911;28;20515;-51
2023/11/09 10:38:20;;;;;;;2.40;1.60;;;13.50;54.20;;;;;;5007526;28;21186;-52
2023/11/09 10:40:47;;;;;;;1.97;1.80;;;13.70;54.20;;;;;;5007544;28;20442;-53
2023/11/09 10:43:14;;;;;;;5.30;1.63;;;13.90;54.00;;;;;;5005594;28;20458;-47
2023/11/09 10:45:44;;;;;;;2.50;1.37;;;14.00;53.90;;;;;;5010968;28;20431;-48
2023/11/09 10:48:17;;;;;;;2.57;1.90;;;14.10;53.70;;;;;;4999164;28;20437;-48
2023/11/09 10:50:49;;;;;;;1.33;1.23;;;14.30;53.50;;;;;;5009448;28;20464;-47
2023/11/09 10:53:19;;;;;;;2.17;1.53;;;14.40;53.40;;;;;;5007403;28;20491;-47
2023/11/09 10:55:53;;;;;;;1.33;1.23;;;14.30;53.70;;;;;;5003460;28;20475;-45
2023/11/09 10:58:22;;;;;;;2.10;1.10;;;14.30;54.10;;;;;;5005587;28;20872;-49
2023/11/09 11:00:59;;;;;;;2.20;1.20;;;14.40;54.30;;;;;;5006890;28;20472;-47
2023/11/09 11:03:38;;;;;;;1.27;1.20;;;14.50;54.10;;;;;;5007149;28;20449;-45
2023/11/09 11:06:17;;;;;;;2.93;1.33;;;14.60;53.90;;;;;;5007281;28;20447;-50
2023/11/09 11:08:53;;;;;;;1.23;1.00;;;14.70;54.00;;;;;;5006853;28;20812;-48
2023/11/09 11:11:24;;;;;;;3.93;1.13;;;14.50;54.30;;;;;;5003628;28;20441;-45
2023/11/09 11:13:57;;;;;;;1.20;1.10;;;14.30;54.60;;;;;;5008351;28;20475;-47
2023/11/09 11:16:47;;;;;;;1.27;1.03;;;14.30;54.50;;;;;;5007330;28;20975;-46
2023/11/09 11:19:16;;;;;;;0.90;0.90;;;14.10;54.60;;;;;;5006010;28;20472;-47
2023/11/09 11:22:00;;;;;;;1.13;1.03;;;14.20;55.00;;;;;;5008371;28;20495;-46
2023/11/09 11:25:14;;;;;;;2.60;0.90;;;14.20;54.70;;;;;;5002719;28;20448;-45
2023/11/09 11:27:46;;;;;;;2.10;0.80;;;14.40;55.10;;;;;;4956541;28;20415;-45
2023/11/09 11:30:27;;;;;;;1.10;0.90;;;14.60;54.50;;;;;;4952234;28;20521;-49
2023/11/09 11:32:57;;;;;;;1.27;1.17;;;14.50;54.50;;;;;;4994056;28;20480;-50
2023/11/09 11:35:43;;;;;;;2.00;1.00;;;14.60;54.70;;;;;;5009418;28;20988;-48
2023/11/09 11:38:29;;;;;;;1.07;0.97;;;14.70;54.50;;;;;;5010960;28;20587;-47
2023/11/09 11:41:04;;;;;;;2.40;1.20;;;14.80;54.40;;;;;;5005364;28;20842;-49
2023/11/09 11:43:37;;;;;;;1.00;0.90;;;14.90;54.40;;;;;;5005196;28;20491;-46
2023/11/09 11:46:08;;;;;;;4.33;1.30;;;14.80;54.60;;;;;;5008368;28;20850;-45
2023/11/09 11:48:34;;;;;;;1.00;0.90;;;14.90;54.30;;;;;;5009610;28;20436;-48
2023/11/09 11:51:06;;;;;;;1.20;0.90;;;14.90;54.20;;;;;;5000266;28;20498;-51
2023/11/09 11:53:33;;;;;;;2.27;1.43;;;14.70;54.20;;;;;;5002937;28;20515;-48
2023/11/09 11:55:59;;;;;;;1.30;1.20;;;14.70;54.70;;;;;;5001723;28;20443;-47
2023/11/09 11:58:38;;;;;;;1.50;1.37;;;14.80;54.80;;;;;;5006775;28;20808;-46
2023/11/09 12:01:04;;;;;;;1.40;1.10;;;15.00;54.40;;;;;;5004607;28;20440;-46
2023/11/09 12:03:34;;;;;;;1.20;1.10;;;15.10;54.00;;;;;;5009243;28;20444;-46
2023/11/09 12:06:02;;;;;;;0.93;0.80;;;15.20;53.80;;;;;;5008474;28;20960;-46
2023/11/09 12:08:28;;;;;;;2.83;1.23;;;15.30;53.60;;;;;;5009267;28;20536;-47
2023/11/09 12:10:54;;;;;;;2.23;1.50;;;15.20;53.50;;;;;;5003360;28;20532;-47
2023/11/09 12:13:21;;;;;;;0.87;0.87;;;15.10;53.70;;;;;;5007090;28;20301;-47
2023/11/09 12:15:47;;;;;;;1.60;1.40;;;15.00;53.70;;;;;;5007297;28;20260;-49
2023/11/09 12:18:12;;;;;;;2.00;0.80;;;15.10;54.00;;;;;;5008758;28;20432;-46
2023/11/09 12:20:38;;;;;;;3.40;2.00;;;15.00;53.80;;;;;;4999936;28;20277;-47
2023/11/09 12:23:05;;;;;;;4.53;2.80;;;14.90;54.10;;;;;;5008207;28;20621;-47
2023/11/09 12:25:58;;;;;;;3.70;2.80;;;15.00;54.20;;;;;;5009514;28;20186;-47
2023/11/09 12:28:23;;;;;;;5.60;3.10;;;15.30;54.10;;;;;;5003194;28;21053;-48
2023/11/09 12:30:50;;;;;;;1.90;1.27;;;15.40;53.60;;;;;;5007990;28;20445;-50
2023/11/09 12:33:16;;;;;;;5.33;2.10;;;15.20;53.70;;;;;;5008349;28;20723;-48
2023/11/09 12:36:05;;;;;;;2.37;1.60;;;15.50;54.20;;;;;;5006695;28;20463;-49
2023/11/09 12:38:33;;;;;;;2.30;1.50;;;15.50;53.40;;;;;;5002179;28;20889;-47
2023/11/09 12:41:01;;;;;;;3.20;1.63;;;15.70;53.30;;;;;;5007173;28;20929;-46
2023/11/09 12:43:38;;;;;;;1.17;1.07;;;15.70;53.30;;;;;;5008543;28;20470;-48
2023/11/09 12:46:11;;;;;;;1.97;1.20;;;15.60;53.00;;;;;;5006620;28;20503;-48
2023/11/09 12:48:44;;;;;;;1.10;0.77;;;15.60;52.90;;;;;;5008445;28;20483;-45
2023/11/09 12:51:23;;;;;;;3.03;0.87;;;15.70;53.10;;;;;;5005934;28;20531;-46
2023/11/09 12:53:52;;;;;;;1.17;0.70;;;15.50;53.20;;;;;;5006753;28;20457;-47
2023/11/09 12:56:21;;;;;;;2.30;0.80;;;15.60;53.20;;;;;;5002219;28;20444;-44
2023/11/09 12:58:52;;;;;;;1.20;1.00;;;15.50;53.20;;;;;;5004493;28;20472;-47
2023/11/09 13:01:18;;;;;;;1.00;0.90;;;15.60;53.20;;;;;;5004540;28;20464;-45